Home > Products > Valid Products > TAF

000
FTUS41 KBGM 190400 AAA
TAFBGM
TAF AMD
KBGM 190403Z 1904/1924 26005KT P6SM SCT080 OVC100
     FM190600 29006KT P6SM SCT025 OVC040
      TEMPO 1906/1910 OVC025
     FM191000 30007KT P6SM BKN060
     FM191300 34012KT P6SM SCT030=



000
FTUS41 KBGM 190400 AAA
TAFELM
TAF AMD
KELM 190402Z 1904/1924 31006KT P6SM SCT030 OVC050
      TEMPO 1905/1909 BKN030 OVC050
     FM191300 31010KT P6SM SKC=



000
FTUS41 KBGM 190400 AAA
TAFSYR
TAF AMD
KSYR 190401Z 1904/1924 28007KT P6SM SCT030 OVC040
      TEMPO 1904/1908 BKN030
     FM190900 29005KT P6SM SCT050
     FM191300 31010KT P6SM SCT035=



000
FTUS41 KBGM 190400 AAA
TAFITH
TAF AMD
KITH 190401Z 1904/1924 32004KT P6SM SCT025 OVC040
      TEMPO 1905/1909 BKN025 OVC040
     FM191200 33012KT P6SM SCT030=



000
FTUS41 KBGM 182300
TAFBGM
TAF
KBGM 182333Z 1900/1924 20008KT P6SM SCT120
     FM190200 28007KT P6SM SCT025 BKN035
     FM190900 30007KT P6SM BKN060
     FM191300 34012KT P6SM SCT030=



000
FTUS41 KBGM 182300
TAFITH
TAF
KITH 182333Z 1900/1924 24005KT P6SM BKN050
     FM190200 31009KT P6SM SCT025 BKN035
     FM191200 33012KT P6SM SCT030=



000
FTUS41 KBGM 182300
TAFELM
TAF
KELM 182333Z 1900/1924 20010KT P6SM BKN100
     FM190200 30005KT P6SM OVC060
     FM191300 31010KT P6SM SKC=



000
FTUS41 KBGM 182300
TAFSYR
TAF
KSYR 182333Z 1900/1924 27007KT P6SM BKN050
     FM190900 29005KT P6SM SCT050
     FM191300 31010KT P6SM SCT035=



000
FTUS41 KBGM 182300
TAFAVP
TAF
KAVP 182333Z 1900/1924 20010KT P6SM BKN250
     FM190200 22006KT P6SM BKN120
     FM190700 30004KT P6SM BKN080
     FM191200 33012KT P6SM SKC=



000
FTUS41 KBGM 181700
TAFSYR
TAF
KSYR 181725Z 1818/1918 14010KT P6SM BKN180
     FM182100 20010KT P6SM OVC150
     FM190100 28005KT P6SM OVC050
      TEMPO 1902/1906 -SHRA
     FM191300 31010KT P6SM SCT035=



000
FTUS41 KBGM 181700
TAFBGM
TAF
KBGM 181725Z 1818/1918 18010G16KT P6SM BKN150
     FM190000 20006KT P6SM BKN120
     FM190300 26005KT P6SM OVC060
     FM190600 29005KT P6SM OVC060
     FM191300 31012KT P6SM SCT030=



000
FTUS41 KBGM 181700
TAFITH
TAF
KITH 181725Z 1818/1918 17012KT P6SM BKN150
     FM190100 30005KT P6SM OVC060
     FM191200 31012KT P6SM SCT030=



000
FTUS41 KBGM 181700
TAFELM
TAF
KELM 181725Z 1818/1918 20010KT P6SM BKN180
     FM190300 30005KT P6SM OVC060
     FM191300 31010KT P6SM SKC=



000
FTUS41 KBGM 181700
TAFAVP
TAF
KAVP 181725Z 1818/1918 21009KT P6SM BKN250
     FM190200 22006KT P6SM BKN120
     FM190700 30004KT P6SM BKN080
     FM191200 33012KT P6SM SKC=



000
FTUS41 KBGM 181200 AAA
TAFAVP
TAF AMD
KAVP 181246Z 1813/1912 21006KT P6SM SCT250
     FM182100 22010G16KT P6SM BKN120
     FM190000 VRB03KT P6SM OVC100=



000
FTUS41 KBGM 181100
TAFBGM
TAF
KBGM 181124Z 1812/1912 17008KT P6SM SCT250
     FM181400 18010G16KT P6SM SCT100 BKN250
     FM182100 20012G18KT P6SM BKN100
     FM190200 28005KT P6SM OVC080=



000
FTUS41 KBGM 181100
TAFSYR
TAF
KSYR 181124Z 1812/1912 14008KT P6SM SCT250
     FM181400 15010G16KT P6SM SCT100 BKN250
     FM182100 22012G20KT P6SM BKN100
     FM190000 28006KT P6SM OVC050
     FM190400 30008KT P6SM -SHRA OVC050=



000
FTUS41 KBGM 181100
TAFITH
TAF
KITH 181124Z 1812/1912 15008KT P6SM SCT250
     FM181400 16010G16KT P6SM SCT100 BKN250
     FM182000 20012G20KT P6SM BKN100
     FM190000 30005KT P6SM OVC080=



000
FTUS41 KBGM 181100
TAFELM
TAF
KELM 181124Z 1812/1912 17008KT P6SM SCT250
     FM181400 18010G16KT P6SM SCT100 BKN250
     FM182000 20012G20KT P6SM BKN100
     FM190000 30005KT P6SM OVC080=



000
FTUS41 KBGM 181100
TAFAVP
TAF
KAVP 181124Z 1812/1912 14006KT P6SM SCT250
      TEMPO 1812/1814 OVC018
     FM181400 22008KT P6SM SCT250
     FM182100 22010G16KT P6SM BKN120
     FM190000 VRB03KT P6SM OVC100=



000
FTUS41 KBGM 180900 AAB
TAFAVP
TAF AMD
KAVP 180901Z 1809/1906 14006KT P6SM SCT250
      TEMPO 1809/1811 OVC020
     FM181400 22008KT P6SM SCT250
     FM182100 22010G16KT P6SM BKN120=



000
FTUS41 KBGM 180900 AAA
TAFBGM
TAF AMD
KBGM 180901Z 1809/1906 17008KT P6SM SCT250
     FM181400 18010G16KT P6SM SCT100 BKN250
     FM182100 20012G18KT P6SM BKN100
     FM190200 28005KT P6SM OVC080=



000
FTUS41 KBGM 180900 AAA
TAFSYR
TAF AMD
KSYR 180901Z 1809/1906 14008KT P6SM SCT250
     FM181400 15010G16KT P6SM SCT100 BKN250
     FM182100 22012G20KT P6SM BKN100
     FM190000 28006KT P6SM OVC050
     FM190400 30008KT P6SM -SHRA OVC050=



000
FTUS41 KBGM 180900 AAA
TAFITH
TAF AMD
KITH 180901Z 1809/1906 15008KT P6SM SCT250
     FM181400 16010G16KT P6SM SCT100 BKN250
     FM182000 20012G20KT P6SM BKN100
     FM190000 30005KT P6SM OVC080=



000
FTUS41 KBGM 180900 AAA
TAFELM
TAF AMD
KELM 180901Z 1809/1906 17008KT P6SM SCT250
     FM181400 18010G16KT P6SM SCT100 BKN250
     FM182000 20012G20KT P6SM BKN100
     FM190000 30005KT P6SM OVC080=



000
FTUS41 KBGM 180600 AAA
TAFAVP
TAF AMD
KAVP 180639Z 1807/1906 14006KT P6SM SCT250
      TEMPO 1807/1811 OVC020
     FM181400 22008KT P6SM SCT250
     FM182100 22010G16KT P6SM BKN120=



000
FTUS41 KBGM 180500
TAFAVP
TAF
KAVP 180535Z 1806/1906 14006KT P6SM SCT250
     FM181400 22008KT P6SM SCT250
     FM182100 22010G16KT P6SM BKN120=



000
FTUS41 KBGM 180500
TAFSYR
TAF
KSYR 180535Z 1806/1906 14008KT P6SM SCT250
     FM181400 15010G16KT P6SM SCT100 BKN250
     FM182100 22012G20KT P6SM BKN100
     FM190000 28006KT P6SM OVC050
     FM190400 30008KT P6SM -SHRA OVC050=



000
FTUS41 KBGM 180500
TAFITH
TAF
KITH 180535Z 1806/1906 15008KT P6SM SCT250
     FM181400 16010G16KT P6SM SCT100 BKN250
     FM182000 20012G20KT P6SM BKN100
     FM190000 30005KT P6SM OVC080=



000
FTUS41 KBGM 180500
TAFELM
TAF
KELM 180535Z 1806/1906 17008KT P6SM SCT250
     FM181400 18010G16KT P6SM SCT100 BKN250
     FM182000 20012G20KT P6SM BKN100
     FM190000 30005KT P6SM OVC080=



000
FTUS41 KBGM 180500
TAFBGM
TAF
KBGM 180535Z 1806/1906 17008KT P6SM SCT250
     FM181400 18010G16KT P6SM SCT100 BKN250
     FM182100 20012G18KT P6SM BKN100
     FM190200 28005KT P6SM OVC080=



000
FTUS41 KBGM 172300
TAFELM
TAF
KELM 172331Z 1800/1824 17008KT P6SM SCT250
     FM181400 18010G16KT P6SM SCT100 BKN250
     FM182000 20012G20KT P6SM BKN100=



000
FTUS41 KBGM 172300
TAFBGM
TAF
KBGM 172331Z 1800/1824 17008KT P6SM SCT250
     FM181400 18010G16KT P6SM SCT100 BKN250
     FM182100 20012G18KT P6SM BKN100=



000
FTUS41 KBGM 172300
TAFAVP
TAF
KAVP 172331Z 1800/1824 14006KT P6SM SCT250
     FM181400 22008KT P6SM SCT250
     FM182100 22010G16KT P6SM BKN120=



000
FTUS41 KBGM 172300
TAFITH
TAF
KITH 172331Z 1800/1824 15008KT P6SM SCT250
     FM181400 16010G16KT P6SM SCT100 BKN250
     FM182000 20012G20KT P6SM BKN100=



000
FTUS41 KBGM 172300
TAFSYR
TAF
KSYR 172331Z 1800/1824 14008KT P6SM SCT250
     FM181400 15010G16KT P6SM SCT100 BKN250
     FM182100 22012G20KT P6SM BKN100=



000
FTUS41 KBGM 171700
TAFBGM
TAF
KBGM 171736Z 1718/1818 15010G18KT P6SM BKN250
     FM172300 16008KT P6SM SCT250=



000
FTUS41 KBGM 171700
TAFAVP
TAF
KAVP 171736Z 1718/1818 19010G18KT P6SM BKN250
     FM180000 VRB04KT P6SM SCT250
     FM180600 10005KT P6SM SCT250=



000
FTUS41 KBGM 171700
TAFSYR
TAF
KSYR 171736Z 1718/1818 12010G18KT P6SM BKN250
     FM172300 14008KT P6SM SCT250=



000
FTUS41 KBGM 171700
TAFELM
TAF
KELM 171736Z 1718/1818 18008G16KT P6SM BKN250
     FM180100 VRB03KT P6SM SCT250=



000
FTUS41 KBGM 171700
TAFITH
TAF
KITH 171736Z 1718/1818 18015KT P6SM BKN250
     FM180000 14008KT P6SM SCT250=



000
FTUS41 KBGM 171100
TAFBGM
TAF
KBGM 171120Z 1712/1812 12008KT P6SM BKN250
     FM171600 15012KT P6SM BKN250=



000
FTUS41 KBGM 171100
TAFAVP
TAF
KAVP 171120Z 1712/1812 05007KT P6SM SCT250
     FM171700 17008KT P6SM SCT250
     FM180100 10005KT P6SM SCT250=



000
FTUS41 KBGM 171100
TAFSYR
TAF
KSYR 171120Z 1712/1812 10006KT P6SM BKN250
     FM171600 15010KT P6SM BKN250=



000
FTUS41 KBGM 171100
TAFELM
TAF
KELM 171120Z 1712/1812 VRB05KT P6SM BKN250
     FM171500 17010KT P6SM BKN250
     FM180100 VRB03KT P6SM BKN250=



000
FTUS41 KBGM 171100
TAFITH
TAF
KITH 171120Z 1712/1812 12007KT P6SM BKN250
     FM171400 15012KT P6SM BKN250=



000
FTUS41 KBGM 170800 AAA
TAFBGM
TAF AMD
KBGM 170813Z 1708/1806 VRB05KT P6SM BKN250
     FM171300 15010KT P6SM BKN250=



000
FTUS41 KBGM 170800 AAA
TAFITH
TAF AMD
KITH 170813Z 1708/1806 VRB05KT P6SM BKN250
     FM171300 16012G22KT P6SM BKN250=



000
FTUS41 KBGM 170800 AAA
TAFSYR
TAF AMD
KSYR 170813Z 1708/1806 VRB03KT P6SM BKN250
     FM171300 15012KT P6SM BKN250=



000
FTUS41 KBGM 170800 AAA
TAFAVP
TAF AMD
KAVP 170813Z 1708/1806 VRB03KT P6SM SCT250
     FM171400 13008KT P6SM SCT250=



000
FTUS41 KBGM 170800 AAA
TAFELM
TAF AMD
KELM 170813Z 1708/1806 00000KT P6SM BKN250
     FM171400 15008KT P6SM BKN250=



000
FTUS41 KBGM 170500
TAFBGM
TAF
KBGM 170525Z 1706/1806 VRB05KT P6SM BKN250
     FM171300 15010KT P6SM BKN250=



000
FTUS41 KBGM 170500
TAFAVP
TAF
KAVP 170525Z 1706/1806 VRB03KT P6SM SCT250
     FM171400 13008KT P6SM SCT250=



000
FTUS41 KBGM 170500
TAFSYR
TAF
KSYR 170525Z 1706/1806 VRB03KT P6SM BKN250
     FM171300 15012KT P6SM BKN250=



000
FTUS41 KBGM 170500
TAFITH
TAF
KITH 170525Z 1706/1806 VRB05KT P6SM BKN250
     FM171300 16012G22KT P6SM BKN250=



000
FTUS41 KBGM 170500
TAFELM
TAF
KELM 170525Z 1706/1806 00000KT P6SM BKN250
     FM171400 15008KT P6SM BKN250=



000
FTUS41 KBGM 162300
TAFELM
TAF
KELM 162339Z 1700/1724 VRB02KT P6SM SCT250
     FM171400 14007KT P6SM SCT250=



000
FTUS41 KBGM 162300
TAFBGM
TAF
KBGM 162339Z 1700/1724 VRB04KT P6SM SCT250
     FM171300 15010KT P6SM SCT250=



000
FTUS41 KBGM 162300
TAFSYR
TAF
KSYR 162339Z 1700/1724 VRB03KT P6SM SCT250
     FM171300 14008KT P6SM SCT250=



000
FTUS41 KBGM 162300
TAFITH
TAF
KITH 162339Z 1700/1724 VRB04KT P6SM SCT250
     FM171300 15012KT P6SM SCT250=



000
FTUS41 KBGM 162300
TAFAVP
TAF
KAVP 162339Z 1700/1724 09004KT P6SM SCT250=



000
FTUS41 KBGM 161700
TAFAVP
TAF
KAVP 161730Z 1618/1718 36010G16KT P6SM SKC
     FM170000 09006KT P6SM SKC=



000
FTUS41 KBGM 161700
TAFSYR
TAF
KSYR 161730Z 1618/1718 33008KT P6SM SCT045
     FM170200 VRB03KT P6SM SKC
     FM171200 14008KT P6SM SKC=



000
FTUS41 KBGM 161700
TAFBGM
TAF
KBGM 161730Z 1618/1718 34010G18KT P6SM BKN035
     FM162000 34008KT P6SM SKC
     FM170000 VRB04KT P6SM SKC
     FM171200 14010KT P6SM SKC=



000
FTUS41 KBGM 161700
TAFELM
TAF
KELM 161730Z 1618/1718 36008KT P6SM SCT045
     FM170000 VRB03KT P6SM SKC
     FM171400 14007KT P6SM SKC=



000
FTUS41 KBGM 161700
TAFITH
TAF
KITH 161730Z 1618/1718 32010KT P6SM BKN035
     FM162100 32008KT P6SM SKC
     FM170000 VRB04KT P6SM SKC
     FM171300 15012KT P6SM SKC=



000
FTUS41 KBGM 161600 AAB
TAFELM
TAF AMD
KELM 161623Z 1616/1712 36008KT P6SM BKN045
     FM170000 VRB03KT P6SM SKC
     FM170600 11005KT P6SM FEW250=



000
FTUS41 KBGM 161300 AAA
TAFITH
TAF AMD
KITH 161338Z 1614/1712 36012G20KT P6SM BKN025
      TEMPO 1614/1616 4SM -SHSN BKN015 OVC025
     FM161700 31012G20KT P6SM SCT025
     FM161900 32008KT P6SM SKC
     FM170000 VRB04KT P6SM SKC
     FM170600 11006KT P6SM FEW250=



000
FTUS41 KBGM 161200 AAA
TAFBGM
TAF AMD
KBGM 161258Z 1613/1712 34012G20KT P6SM SCT025 BKN040
      TEMPO 1613/1615 5SM -SHSN BKN015
     FM161500 34012G20KT P6SM SCT025
     FM162000 34008KT P6SM SKC
     FM170000 VRB04KT P6SM SKC
     FM170800 11005KT P6SM FEW250=



000
FTUS41 KBGM 161200 AAA
TAFELM
TAF AMD
KELM 161257Z 1613/1712 35010G18KT P6SM SCT030
     FM161900 36007KT P6SM SKC
     FM170000 VRB03KT P6SM SKC
     FM170600 11005KT P6SM FEW250=



000
FTUS41 KBGM 161100
TAFITH
TAF
KITH 161131Z 1612/1712 32014KT 5SM -SHSN BKN015 OVC025
      TEMPO 1612/1615 P6SM NSW BKN025
     FM161500 31012KT P6SM SCT035
     FM161800 32008KT P6SM SKC
     FM170000 VRB04KT P6SM SKC
     FM170600 11006KT P6SM FEW250=



000
FTUS41 KBGM 161100
TAFSYR
TAF
KSYR 161131Z 1612/1712 33010KT P6SM -SHSN SCT025 BKN035
     FM161400 33010G20KT P6SM SCT025 BKN035
     FM161600 35008KT P6SM SKC
     FM170200 VRB03KT P6SM FEW250
     FM170900 12006KT P6SM FEW250=



000
FTUS41 KBGM 161100
TAFELM
TAF
KELM 161131Z 1612/1712 30010KT P6SM SCT035
     FM161700 34006KT P6SM SKC
     FM170000 VRB03KT P6SM SKC
     FM170600 11005KT P6SM FEW250=



000
FTUS41 KBGM 161100
TAFBGM
TAF
KBGM 161131Z 1612/1712 32010KT P6SM SCT025 BKN040
      TEMPO 1612/1614 5SM -SHSN BKN015
     FM161500 32012G20KT P6SM SCT035
     FM161800 34008KT P6SM SKC
     FM170000 VRB04KT P6SM SKC
     FM170800 11005KT P6SM FEW250=



000
FTUS41 KBGM 161100
TAFAVP
TAF
KAVP 161131Z 1612/1712 32010G20KT P6SM SKC
     FM161900 34012KT P6SM SKC
     FM170000 VRB04KT P6SM SKC
     FM170800 10005KT P6SM SKC=



000
FTUS41 KBGM 161100
TAFAVP
TAF
KAVP 161130Z 1612/1712 32010G20KT P6SM SKC
     FM161900 34012KT P6SM SKC
     FM170000 VRB04KT P6SM SKC
     FM170800 10005KT P6SM SKC=



000
FTUS41 KBGM 161100
TAFBGM
TAF
KBGM 161130Z 1612/1712 32010KT P6SM SCT025 BKN040
      TEMPO 1612/1614 5SM -SHSN BKN015
     FM161500 32012G20KT P6SM SCT035
     FM161800 34008KT P6SM SKC
     FM170000 VRB04KT P6SM SKC
     FM170800 11005KT P6SM FEW250=



000
FTUS41 KBGM 161100
TAFITH
TAF
KITH 161130Z 1612/1712 32014KT 5SM -SHSN BKN015 OVC025
      TEMPO 1612/1615 P6SM NSW BKN025
     FM161500 31012KT P6SM SCT035
     FM161800 32008KT P6SM SKC
     FM170000 VRB04KT P6SM SKC
     FM170600 11006KT P6SM FEW250=



000
FTUS41 KBGM 161100
TAFELM
TAF
KELM 161130Z 1612/1712 30010KT P6SM SCT035
     FM161700 34006KT P6SM SKC
     FM170000 VRB03KT P6SM SKC
     FM170600 11005KT P6SM FEW250=



000
FTUS41 KBGM 161100
TAFSYR
TAF
KSYR 161130Z 1612/1712 33010KT P6SM -SHSN SCT025 BKN035
     FM161400 33010G20KT P6SM SCT025 BKN035
     FM161600 35008KT P6SM SKC
     FM170200 VRB03KT P6SM FEW250
     FM170900 12006KT P6SM FEW250=



000
FTUS41 KBGM 160800 AAA
TAFELM
TAF AMD
KELM 160833Z 1609/1706 30010KT P6SM -SHSN BKN040
     FM161400 32010KT P6SM SCT035
     FM161800 36006KT P6SM SKC
     FM170000 VRB03KT P6SM SKC=



000
FTUS41 KBGM 160800 AAA
TAFBGM
TAF AMD
KBGM 160833Z 1609/1706 32010G18KT P6SM -SHSN SCT025 BKN040
      TEMPO 1609/1612 BKN025
     FM161600 33014KT P6SM SCT035
     FM162200 VRB04KT P6SM SKC=



000
FTUS41 KBGM 160800 AAA
TAFSYR
TAF AMD
KSYR 160833Z 1609/1706 30010G18KT P6SM -SHSN SCT025 BKN035
     FM161300 33010KT P6SM SCT025 BKN035
     FM161600 35008KT P6SM SCT035
     FM170200 VRB03KT P6SM SCT250=



000
FTUS41 KBGM 160800 AAA
TAFITH
TAF AMD
KITH 160833Z 1609/1706 32014G20KT P6SM -SHSN SCT025 OVC050
      TEMPO 1609/1612 BKN025
     FM161400 31012KT P6SM SCT025 BKN035
     FM161600 32008KT P6SM SCT035
     FM162100 VRB04KT P6SM SKC=



000
FTUS41 KBGM 160800 AAA
TAFAVP
TAF AMD
KAVP 160833Z 1609/1706 32010G20KT P6SM SCT045
     FM161700 34012KT P6SM SKC
     FM170000 VRB04KT P6SM SKC=



000
FTUS41 KBGM 160500
TAFAVP
TAF
KAVP 160528Z 1606/1706 31012G25KT P6SM SCT015 BKN035
     FM161200 34012G20KT P6SM SCT035
     FM161700 34012KT P6SM SKC
     FM170000 VRB04KT P6SM SKC=



000
FTUS41 KBGM 160500
TAFITH
TAF
KITH 160528Z 1606/1706 32014G20KT P6SM -SHSN SCT025 OVC050
      TEMPO 1606/1610 BKN025
     FM161400 31012KT P6SM SCT025 BKN035
     FM161600 32008KT P6SM SCT035
     FM162100 VRB04KT P6SM SKC=



000
FTUS41 KBGM 160500
TAFELM
TAF
KELM 160528Z 1606/1706 29010G18KT P6SM -SHSN BKN040
     FM161400 32010KT P6SM SCT035
     FM161800 36006KT P6SM SKC
     FM170000 VRB03KT P6SM SKC=



000
FTUS41 KBGM 160500
TAFBGM
TAF
KBGM 160528Z 1606/1706 32012G22KT P6SM -SHSN SCT025 BKN040
      TEMPO 1606/1610 BKN025
     FM161000 33012G18KT P6SM BKN035
     FM161600 33014KT P6SM SCT035
     FM162200 VRB04KT P6SM SKC=



000
FTUS41 KBGM 160500
TAFSYR
TAF
KSYR 160528Z 1606/1706 31012G20KT P6SM -SHSN SCT025 BKN035
     FM161300 33010KT P6SM SCT025 BKN035
     FM161600 35008KT P6SM SCT035
     FM170200 VRB03KT P6SM SCT250=



    US Dept of Commerce
    National Oceanic and Atmospheric Administration
    National Weather Service
    1325 East West Highway
    Silver Spring, MD 20910
    Page Author: NWS Internet Services Team
Disclaimer
Information Quality
Credits
Glossary
Privacy Policy
Freedom of Information Act (FOIA)
About Us
Career Opportunities